createdAt,value
2018-03-03T00:00:13.179Z,62.92
2018-03-03T00:02:40.814Z,62.83
2018-03-03T00:05:08.402Z,63.38
2018-03-03T00:07:35.983Z,66.37
2018-03-03T00:10:03.615Z,61.42
2018-03-03T00:12:31.198Z,63.35
2018-03-03T00:14:58.783Z,61.70
2018-03-03T00:17:26.403Z,60.60
2018-03-03T00:19:53.986Z,61.67
2018-03-03T00:22:33.364Z,60.65
2018-03-03T00:25:00.958Z,62.65
2018-03-03T00:27:28.538Z,63.42
2018-03-03T00:29:56.153Z,64.90
2018-03-03T00:32:23.730Z,61.95
2018-03-03T00:34:51.364Z,61.30
2018-03-03T00:37:18.974Z,60.58
2018-03-03T00:39:46.559Z,60.38
2018-03-03T00:42:14.202Z,63.55
2018-03-03T00:44:41.786Z,65.82
2018-03-03T00:47:09.411Z,62.15
2018-03-03T00:49:36.989Z,61.40
2018-03-03T00:52:05.339Z,63.83
2018-03-03T00:54:32.959Z,60.03
2018-03-03T00:57:00.546Z,61.65
2018-03-03T00:59:28.893Z,61.17
2018-03-03T01:01:56.562Z,62.20
2018-03-03T01:04:24.910Z,65.62
2018-03-03T01:06:52.490Z,58.87
2018-03-03T01:09:20.150Z,64.50
2018-03-03T01:11:47.730Z,63.92
2018-03-03T01:14:15.307Z,61.60
2018-03-03T01:16:43.719Z,60.63
2018-03-03T01:19:11.307Z,62.88
2018-03-03T01:21:38.891Z,65.32
2018-03-03T01:24:06.517Z,63.65
2018-03-03T01:26:34.866Z,61.08
2018-03-03T01:29:02.478Z,60.85
2018-03-03T01:31:30.055Z,61.20
2018-03-03T01:33:57.643Z,62.47
2018-03-03T01:36:25.262Z,64.60
2018-03-03T01:38:54.303Z,58.00
2018-03-03T01:41:21.886Z,61.83
2018-03-03T01:43:50.296Z,58.38
2018-03-03T01:46:17.887Z,64.32
2018-03-03T01:48:45.474Z,58.00
2018-03-03T01:51:24.974Z,57.88
2018-03-03T01:53:53.330Z,56.60
2018-03-03T01:56:21.689Z,58.85
2018-03-03T01:58:50.090Z,56.42
2018-03-03T02:01:17.668Z,56.90
2018-03-03T02:03:45.244Z,56.22
2018-03-03T02:06:13.642Z,55.97
2018-03-03T02:08:41.219Z,56.78
2018-03-03T02:11:08.799Z,57.30
2018-03-03T02:13:37.251Z,56.42
2018-03-03T02:16:04.837Z,59.05
2018-03-03T02:18:32.446Z,55.40
2018-03-03T02:21:00.078Z,57.13
2018-03-03T02:23:27.658Z,56.25
2018-03-03T02:25:56.002Z,56.37
2018-03-03T02:28:23.638Z,55.22
2018-03-03T02:30:51.221Z,56.35
2018-03-03T02:33:19.563Z,56.35
2018-03-03T02:35:47.182Z,57.85
2018-03-03T02:38:14.771Z,59.78
2018-03-03T02:40:43.179Z,57.05
2018-03-03T02:43:10.779Z,58.10
2018-03-03T02:45:39.131Z,60.67
2018-03-03T02:48:06.770Z,62.50
2018-03-03T02:50:34.358Z,57.42
2018-03-03T02:53:01.943Z,61.50
2018-03-03T02:55:29.690Z,57.67
2018-03-03T02:57:57.279Z,58.10
2018-03-03T03:00:25.627Z,56.53
2018-03-03T03:02:53.279Z,56.58
2018-03-03T03:05:21.631Z,59.55
2018-03-03T03:07:49.214Z,57.67
2018-03-03T03:10:16.830Z,57.62
2018-03-03T03:12:44.406Z,59.25
2018-03-03T03:15:12.026Z,58.50
2018-03-03T03:17:40.430Z,55.60
2018-03-03T03:20:08.011Z,56.83
2018-03-03T03:22:35.595Z,56.85
2018-03-03T03:25:03.980Z,54.28
2018-03-03T03:27:31.562Z,53.38
2018-03-03T03:29:59.173Z,50.58
2018-03-03T03:32:26.750Z,52.15
2018-03-03T03:34:54.363Z,47.78
2018-03-03T03:37:22.003Z,47.70
2018-03-03T03:39:49.586Z,50.15
2018-03-03T03:42:17.166Z,49.58
2018-03-03T03:44:45.542Z,48.45
2018-03-03T03:47:13.886Z,45.67
2018-03-03T03:49:41.515Z,50.67
2018-03-03T03:52:09.095Z,46.88
2018-03-03T03:54:37.517Z,47.90
2018-03-03T03:57:05.143Z,46.88
2018-03-03T03:59:32.724Z,48.58
2018-03-03T04:02:00.310Z,48.40
2018-03-03T04:04:27.950Z,49.58
2018-03-03T04:06:56.314Z,48.53
2018-03-03T04:09:24.658Z,48.45
2018-03-03T04:11:52.310Z,46.97
2018-03-03T04:14:20.659Z,42.78
2018-03-03T04:16:48.238Z,41.30
2018-03-03T04:19:15.855Z,39.90
2018-03-03T04:21:43.442Z,37.33
2018-03-03T04:24:11.026Z,33.80
2018-03-03T04:26:38.663Z,32.47
2018-03-03T04:29:06.246Z,37.78
2018-03-03T04:31:33.834Z,35.53
2018-03-03T04:34:01.474Z,42.65
2018-03-03T04:36:29.054Z,40.67
2018-03-03T04:38:56.641Z,40.22
2018-03-03T04:41:25.023Z,39.25
2018-03-03T04:43:52.603Z,40.20
2018-03-03T04:46:20.220Z,37.60
2018-03-03T04:48:47.814Z,37.45
2018-03-03T04:51:15.427Z,38.63
2018-03-03T04:53:43.043Z,37.60
2018-03-03T04:56:10.676Z,32.78
2018-03-03T05:01:54.642Z,32.45
2018-03-03T05:04:22.222Z,31.73
2018-03-03T05:07:02.774Z,32.53
2018-03-03T05:09:30.350Z,33.63
2018-03-03T05:11:57.934Z,31.48
2018-03-03T05:14:31.374Z,28.58
2018-03-03T05:16:59.910Z,31.50
2018-03-03T05:19:33.187Z,30.45
2018-03-03T05:22:06.515Z,30.20
2018-03-03T05:24:39.798Z,32.42
2018-03-03T05:30:24.822Z,31.25
2018-03-03T05:32:58.803Z,30.75
2018-03-03T05:35:32.046Z,29.98
2018-03-03T05:38:00.610Z,29.10
2018-03-03T05:40:31.047Z,30.70
2018-03-03T05:43:04.390Z,30.05
2018-03-03T05:48:44.234Z,30.30
2018-03-03T05:51:17.586Z,29.90
2018-03-03T05:57:01.886Z,28.77
2018-03-03T05:59:35.206Z,29.05
2018-03-03T06:02:06.794Z,27.13
2018-03-03T06:04:40.167Z,27.42
2018-03-03T06:07:13.511Z,26.00
2018-03-03T06:09:45.035Z,25.23
2018-03-03T06:12:13.414Z,25.00
2018-03-03T06:14:40.995Z,25.42
2018-03-03T06:17:09.462Z,24.60
2018-03-03T06:19:37.690Z,26.85
2018-03-03T06:22:05.266Z,27.80
2018-03-03T06:24:32.842Z,26.48
2018-03-03T06:27:00.498Z,26.52
2018-03-03T06:29:28.079Z,28.20
2018-03-03T06:31:55.664Z,27.58
2018-03-03T06:34:23.296Z,26.35
2018-03-03T06:36:50.876Z,28.33
2018-03-03T06:39:18.454Z,28.33
2018-03-03T06:41:46.098Z,29.05
2018-03-03T06:44:13.671Z,29.17
2018-03-03T06:46:41.248Z,30.20
2018-03-03T06:49:09.862Z,33.45
2018-03-03T06:51:37.546Z,33.25
2018-03-03T06:54:05.122Z,35.00
2018-03-03T06:56:32.735Z,35.45
2018-03-03T06:59:00.318Z,34.20
2018-03-03T07:01:28.713Z,33.83
2018-03-03T07:03:56.295Z,35.60
2018-03-03T07:06:23.875Z,35.13
2018-03-03T07:08:52.251Z,34.28
2018-03-03T07:11:20.597Z,32.63
2018-03-03T07:13:48.999Z,33.13
2018-03-03T07:16:16.578Z,32.75
2018-03-03T07:18:44.158Z,33.08
2018-03-03T07:21:12.558Z,34.20
2018-03-03T07:23:40.139Z,29.45
2018-03-03T07:26:07.735Z,30.12
2018-03-03T07:28:35.370Z,31.80
2018-03-03T07:31:03.792Z,30.50
2018-03-03T07:33:31.370Z,29.85
2018-03-03T07:35:59.755Z,31.12
2018-03-03T07:38:27.342Z,31.62
2018-03-03T07:40:54.979Z,32.05
2018-03-03T07:43:22.627Z,31.95
2018-03-03T07:45:50.225Z,33.92
2018-03-03T07:48:18.590Z,33.22
2018-03-03T07:50:47.026Z,33.30
2018-03-03T07:53:14.766Z,31.12
2018-03-03T07:55:42.386Z,32.38
2018-03-03T07:58:10.022Z,33.33
2018-03-03T08:00:38.699Z,33.58
2018-03-03T08:03:06.278Z,32.50
2018-03-03T08:05:33.946Z,33.20
2018-03-03T08:08:01.522Z,32.92
2018-03-03T08:10:29.107Z,30.17
2018-03-03T08:12:56.722Z,31.45
2018-03-03T08:15:24.336Z,31.85
2018-03-03T08:17:51.949Z,32.75
2018-03-03T08:20:19.559Z,31.87
2018-03-03T08:22:47.254Z,32.20
2018-03-03T08:25:16.950Z,32.25
2018-03-03T08:27:44.602Z,32.17
2018-03-03T08:30:12.221Z,30.50
2018-03-03T08:32:39.834Z,28.48
2018-03-03T08:35:08.240Z,30.23
2018-03-03T08:37:36.023Z,32.08
2018-03-03T08:40:03.640Z,28.70
2018-03-03T08:42:31.226Z,30.08
2018-03-03T08:44:59.622Z,29.80
2018-03-03T08:47:27.214Z,31.62
2018-03-03T08:49:54.801Z,32.28
2018-03-03T08:52:22.419Z,32.38
2018-03-03T08:54:50.866Z,32.60
2018-03-03T08:57:18.522Z,34.20
2018-03-03T08:59:46.911Z,35.00
2018-03-03T09:02:15.263Z,34.00
2018-03-03T09:04:42.983Z,32.42
2018-03-03T09:07:10.629Z,35.78
2018-03-03T09:09:39.295Z,34.30
2018-03-03T09:12:06.874Z,34.97
2018-03-03T09:14:35.234Z,36.75
2018-03-03T09:17:02.867Z,35.38
2018-03-03T09:19:30.578Z,37.33
2018-03-03T09:21:58.199Z,37.10
2018-03-03T09:24:26.584Z,38.60
2018-03-03T09:26:54.163Z,37.67
2018-03-03T09:29:21.747Z,39.00
2018-03-03T09:31:50.127Z,37.88
2018-03-03T09:34:17.747Z,36.05
2018-03-03T09:36:45.395Z,37.33
2018-03-03T09:39:13.745Z,36.17
2018-03-03T09:41:41.415Z,36.03
2018-03-03T09:44:09.280Z,36.78
2018-03-03T09:46:37.572Z,37.53
2018-03-03T09:49:05.146Z,34.80
2018-03-03T09:51:32.735Z,37.05
2018-03-03T09:54:00.355Z,38.22
2018-03-03T09:56:27.945Z,39.80
2018-03-03T09:58:56.607Z,34.80
2018-03-03T10:01:24.251Z,35.03
2018-03-03T10:03:51.835Z,37.60
2018-03-03T10:06:19.414Z,38.28
2018-03-03T10:08:47.794Z,38.95
2018-03-03T10:11:16.334Z,39.60
2018-03-03T10:13:43.978Z,40.67
2018-03-03T10:16:11.602Z,40.50
2018-03-03T10:18:39.180Z,38.50
2018-03-03T10:21:07.206Z,41.92
2018-03-03T10:23:34.859Z,44.00
2018-03-03T10:26:02.507Z,45.60
2018-03-03T10:28:30.166Z,40.75
2018-03-03T10:30:57.758Z,43.90
2018-03-03T10:33:25.394Z,44.42
2018-03-03T10:35:53.027Z,40.88
2018-03-03T10:38:21.406Z,42.80
2018-03-03T10:40:48.999Z,41.97
2018-03-03T10:43:16.614Z,43.38
2018-03-03T10:45:44.214Z,44.67
2018-03-03T10:48:12.144Z,46.70
2018-03-03T10:50:39.835Z,44.63
2018-03-03T10:53:08.360Z,45.25
2018-03-03T10:55:36.074Z,47.10
2018-03-03T10:58:03.667Z,50.72
2018-03-03T11:00:31.319Z,50.03
2018-03-03T11:02:58.974Z,52.25
2018-03-03T11:05:26.611Z,50.42
2018-03-03T11:07:54.206Z,49.40
2018-03-03T11:10:21.821Z,48.05
2018-03-03T11:12:49.443Z,50.72
2018-03-03T11:15:17.090Z,45.80
2018-03-03T11:17:44.678Z,47.30
2018-03-03T11:20:12.268Z,46.28
2018-03-03T11:22:40.037Z,49.05
2018-03-03T11:25:07.643Z,45.28
2018-03-03T11:27:35.274Z,44.25
2018-03-03T11:30:02.863Z,45.47
2018-03-03T11:32:30.444Z,44.00
2018-03-03T11:34:58.842Z,42.83
2018-03-03T11:37:26.433Z,42.53
2018-03-03T11:39:54.064Z,45.65
2018-03-03T11:42:21.711Z,42.17
2018-03-03T11:44:49.306Z,40.40
2018-03-03T11:47:16.890Z,41.33
2018-03-03T11:49:44.532Z,40.65
2018-03-03T11:52:12.143Z,41.25
2018-03-03T11:54:39.792Z,41.80
2018-03-03T11:57:08.154Z,39.50
2018-03-03T11:59:36.561Z,43.33
2018-03-03T12:02:04.146Z,41.63
2018-03-03T12:04:32.520Z,41.40
2018-03-03T12:07:01.171Z,41.55
2018-03-03T12:09:28.751Z,43.25
2018-03-03T12:11:57.097Z,40.53
2018-03-03T12:14:25.499Z,41.22
2018-03-03T12:16:53.091Z,40.70
2018-03-03T12:19:20.687Z,45.03
2018-03-03T12:21:48.493Z,39.38
2018-03-03T12:24:16.127Z,41.53
2018-03-03T12:26:43.839Z,40.05
2018-03-03T12:29:11.540Z,39.67
2018-03-03T12:31:39.211Z,38.75
2018-03-03T12:34:07.588Z,42.35
2018-03-03T12:36:35.239Z,39.08
2018-03-03T12:39:02.856Z,40.80
2018-03-03T12:41:31.293Z,42.75
2018-03-03T12:43:58.906Z,42.88
2018-03-03T12:46:26.509Z,40.40
2018-03-03T12:48:55.382Z,38.92
2018-03-03T12:51:23.819Z,40.08
2018-03-03T12:53:51.427Z,39.13
2018-03-03T12:56:19.054Z,39.65
2018-03-03T12:58:47.482Z,41.03
2018-03-03T13:01:15.078Z,40.53
2018-03-03T13:03:43.499Z,41.13
2018-03-03T13:06:11.191Z,41.08
2018-03-03T13:08:38.994Z,39.08
2018-03-03T13:11:06.630Z,40.17
2018-03-03T13:13:34.493Z,41.83
2018-03-03T13:16:03.187Z,41.35
2018-03-03T13:18:31.543Z,37.53
2018-03-03T13:20:59.267Z,41.47
2018-03-03T13:23:26.883Z,43.13
2018-03-03T13:25:54.503Z,40.90
2018-03-03T13:28:22.152Z,44.75
2018-03-03T13:30:50.531Z,41.72
2018-03-03T13:33:18.140Z,41.10
2018-03-03T13:35:51.071Z,43.87
2018-03-03T13:38:18.970Z,42.50
2018-03-03T13:40:47.404Z,42.05
2018-03-03T13:43:14.982Z,44.30
2018-03-03T13:45:46.752Z,43.40
2018-03-03T13:48:15.114Z,45.45
2018-03-03T13:50:51.880Z,43.05
2018-03-03T13:53:19.564Z,44.20
2018-03-03T13:55:47.207Z,45.60
2018-03-03T13:58:14.808Z,44.28
2018-03-03T14:00:42.511Z,44.97
2018-03-03T14:03:10.095Z,44.22
2018-03-03T14:05:37.699Z,44.80
2018-03-03T14:08:06.234Z,44.40
2018-03-03T14:10:34.591Z,43.63
2018-03-03T14:13:03.006Z,43.87
2018-03-03T14:15:30.690Z,44.40
2018-03-03T14:17:58.346Z,47.15
2018-03-03T14:20:26.089Z,46.90
2018-03-03T14:22:54.498Z,46.95
2018-03-03T14:25:23.221Z,45.03
2018-03-03T14:27:51.606Z,47.88
2018-03-03T14:30:19.978Z,48.83
2018-03-03T14:32:48.375Z,47.45
2018-03-03T14:35:15.986Z,46.45
2018-03-03T14:37:44.337Z,48.05
2018-03-03T14:40:12.038Z,45.95
2018-03-03T14:42:39.623Z,47.65
2018-03-03T14:45:07.286Z,46.42
2018-03-03T14:47:35.667Z,47.08
2018-03-03T14:50:03.254Z,46.95
2018-03-03T14:52:30.875Z,47.17
2018-03-03T14:54:58.537Z,51.37
2018-03-03T14:57:26.240Z,48.50
2018-03-03T14:59:54.594Z,49.90
2018-03-03T15:02:22.947Z,48.33
2018-03-03T15:04:50.590Z,49.10
2018-03-03T15:07:18.213Z,51.10
2018-03-03T15:09:45.795Z,53.63
2018-03-03T15:12:14.174Z,51.37
2018-03-03T15:14:41.800Z,50.30
2018-03-03T15:17:10.420Z,50.50
2018-03-03T15:19:38.067Z,48.55
2018-03-03T15:22:05.679Z,50.03
2018-03-03T15:24:33.342Z,49.30
2018-03-03T15:27:00.939Z,49.63
2018-03-03T15:29:28.531Z,48.42
2018-03-03T15:31:56.172Z,49.67
2018-03-03T15:34:24.519Z,49.08
2018-03-03T15:36:52.870Z,48.33
2018-03-03T15:39:20.512Z,49.65
2018-03-03T15:41:48.871Z,52.45
2018-03-03T15:44:16.635Z,51.83
2018-03-03T15:46:55.317Z,55.70
2018-03-03T15:49:32.552Z,51.13
2018-03-03T15:52:00.652Z,50.20
2018-03-03T15:54:28.295Z,47.28
2018-03-03T15:56:56.651Z,48.30
2018-03-03T15:59:24.418Z,51.97
2018-03-03T16:01:52.150Z,50.50
2018-03-03T16:04:19.742Z,50.95
2018-03-03T16:06:47.395Z,51.65
2018-03-03T16:09:15.121Z,50.35
2018-03-03T16:11:43.510Z,48.30
2018-03-03T16:14:11.130Z,50.30
2018-03-03T16:16:38.756Z,54.05
2018-03-03T16:19:08.375Z,50.05
2018-03-03T16:21:36.755Z,48.85
2018-03-03T16:24:04.373Z,49.78
2018-03-03T16:26:31.995Z,50.47
2018-03-03T16:28:59.582Z,49.22
2018-03-03T16:31:28.094Z,48.20
2018-03-03T16:33:55.686Z,51.40
2018-03-03T16:36:23.275Z,47.90
2018-03-03T16:38:51.939Z,47.78
2018-03-03T16:41:19.575Z,47.03
2018-03-03T16:43:47.203Z,47.15
2018-03-03T16:46:15.562Z,46.90
2018-03-03T16:48:43.187Z,45.85
2018-03-03T16:51:10.856Z,44.50
2018-03-03T16:53:39.068Z,45.80
2018-03-03T16:56:06.799Z,49.25
2018-03-03T16:58:34.495Z,51.83
2018-03-03T17:01:02.130Z,49.33
2018-03-03T17:03:29.714Z,49.22
2018-03-03T17:05:58.076Z,49.30
2018-03-03T17:08:26.481Z,45.47
2018-03-03T17:10:54.103Z,46.28
2018-03-03T17:13:21.715Z,49.30
2018-03-03T17:15:49.302Z,49.33
2018-03-03T17:18:16.921Z,49.50
2018-03-03T17:20:45.315Z,50.95
2018-03-03T17:23:12.938Z,47.97
2018-03-03T17:25:41.320Z,46.97
2018-03-03T17:28:08.910Z,52.97
2018-03-03T17:30:36.559Z,51.33
2018-03-03T17:33:04.184Z,50.47
2018-03-03T17:35:31.843Z,50.25
2018-03-03T17:38:00.231Z,51.53
2018-03-03T17:40:27.847Z,55.88
2018-03-03T17:42:55.460Z,49.20
2018-03-03T17:45:23.047Z,49.10
2018-03-03T17:47:50.659Z,49.08
2018-03-03T17:50:18.296Z,48.42
2018-03-03T17:52:45.940Z,49.38
2018-03-03T17:55:14.303Z,49.35
2018-03-03T17:57:41.967Z,51.22
2018-03-03T18:00:09.556Z,53.47
2018-03-03T18:02:37.162Z,52.25
2018-03-03T18:05:04.796Z,50.65
2018-03-03T18:07:32.410Z,50.40
2018-03-03T18:10:00.000Z,51.15
2018-03-03T18:12:27.628Z,47.60
2018-03-03T18:14:56.002Z,49.40
2018-03-03T18:17:23.717Z,47.83
2018-03-03T18:19:51.335Z,48.25
2018-03-03T18:22:18.923Z,49.58
2018-03-03T18:24:47.299Z,50.12
2018-03-03T18:27:15.719Z,53.47
2018-03-03T18:29:43.365Z,56.08
2018-03-03T18:32:11.009Z,52.75
2018-03-03T18:34:39.372Z,48.10
2018-03-03T18:37:06.987Z,50.80
2018-03-03T18:39:34.627Z,50.22
2018-03-03T18:42:02.250Z,51.05
2018-03-03T18:44:29.975Z,48.87
2018-03-03T18:46:57.705Z,47.65
2018-03-03T18:49:25.467Z,48.42
2018-03-03T18:51:53.191Z,50.08
2018-03-03T18:54:20.787Z,50.22
2018-03-03T18:56:48.371Z,50.85
2018-03-03T18:59:15.983Z,49.63
2018-03-03T19:01:43.566Z,53.00
2018-03-03T19:04:11.179Z,52.72
2018-03-03T19:06:38.780Z,53.83
2018-03-03T19:09:06.455Z,53.97
2018-03-03T19:11:34.838Z,54.05
2018-03-03T19:14:02.428Z,54.55
2018-03-03T19:16:30.073Z,53.70
2018-03-03T19:18:57.745Z,55.60
2018-03-03T19:21:26.107Z,54.40
2018-03-03T19:23:53.760Z,53.20
2018-03-03T19:26:22.119Z,53.78
2018-03-03T19:28:49.717Z,52.78
2018-03-03T19:31:17.331Z,54.38
2018-03-03T19:33:44.950Z,52.30
2018-03-03T19:36:12.541Z,53.05
2018-03-03T19:38:40.134Z,53.08
2018-03-03T19:41:07.760Z,52.62
2018-03-03T19:43:35.369Z,55.30
2018-03-03T19:46:02.983Z,52.92
2018-03-03T19:48:30.590Z,52.60
2018-03-03T19:50:58.198Z,53.42
2018-03-03T19:53:25.791Z,54.15
2018-03-03T19:55:53.483Z,50.38
2018-03-03T19:58:21.835Z,51.80
2018-03-03T20:00:49.458Z,51.15
2018-03-03T20:03:17.102Z,52.22
2018-03-03T20:05:44.667Z,54.55
2018-03-03T20:08:12.289Z,53.42
2018-03-03T20:10:39.889Z,52.70
2018-03-03T20:13:07.507Z,53.28
2018-03-03T20:15:35.204Z,52.38
2018-03-03T20:18:02.820Z,53.38
2018-03-03T20:20:31.175Z,53.03
2018-03-03T20:22:59.551Z,50.42
2018-03-03T20:25:27.906Z,53.90
2018-03-03T20:27:56.283Z,50.38
2018-03-03T20:30:23.908Z,52.83
2018-03-03T20:32:51.607Z,51.37
2018-03-03T20:35:19.280Z,52.13
2018-03-03T20:37:46.911Z,53.38
2018-03-03T20:40:14.500Z,52.25
2018-03-03T20:42:42.850Z,51.03
2018-03-03T20:45:10.475Z,51.67
2018-03-03T20:47:38.069Z,53.38
2018-03-03T20:50:06.452Z,54.55
2018-03-03T20:52:34.039Z,53.10
2018-03-03T20:55:01.710Z,57.13
2018-03-03T20:57:29.304Z,56.58
2018-03-03T20:59:56.895Z,56.67
2018-03-03T21:02:24.511Z,54.88
2018-03-03T21:04:52.099Z,54.30
2018-03-03T21:07:20.471Z,56.25
2018-03-03T21:09:48.827Z,55.88
2018-03-03T21:15:18.819Z,60.92
2018-03-03T21:17:46.447Z,59.38
2018-03-03T21:20:14.035Z,59.28
2018-03-03T21:22:42.395Z,55.65
2018-03-03T21:25:10.047Z,53.72
2018-03-03T21:27:38.400Z,57.90
2018-03-03T21:30:06.784Z,51.85
2018-03-03T21:32:35.143Z,53.72
2018-03-03T21:35:03.541Z,51.10
2018-03-03T21:37:31.128Z,51.60
2018-03-03T21:39:58.721Z,50.90
2018-03-03T21:42:26.336Z,52.53
2018-03-03T21:44:54.702Z,52.92
2018-03-03T21:47:23.094Z,53.10
2018-03-03T21:49:50.685Z,55.25
2018-03-03T21:52:18.282Z,56.72
2018-03-03T21:54:45.892Z,51.95
2018-03-03T21:57:14.252Z,53.05
2018-03-03T21:59:41.910Z,52.50
2018-03-03T22:02:10.259Z,50.65
2018-03-03T22:04:37.878Z,48.10
2018-03-03T22:07:05.464Z,49.92
2018-03-03T22:09:33.851Z,49.20
2018-03-03T22:12:01.443Z,47.75
2018-03-03T22:14:29.055Z,46.92
2018-03-03T22:16:56.643Z,46.17
2018-03-03T22:19:24.254Z,47.53
2018-03-03T22:21:51.874Z,44.60
2018-03-03T22:24:20.227Z,45.85
2018-03-03T22:26:48.579Z,46.42
2018-03-03T22:29:16.191Z,44.75
2018-03-03T22:31:43.783Z,41.97
2018-03-03T22:34:12.171Z,40.78
2018-03-03T22:36:39.772Z,40.63
2018-03-03T22:39:07.383Z,39.63
2018-03-03T22:41:34.970Z,40.17
2018-03-03T22:44:02.592Z,39.30
2018-03-03T22:46:30.198Z,38.03
2018-03-03T22:48:57.783Z,39.00
2018-03-03T22:51:25.390Z,37.78
2018-03-03T22:53:52.970Z,38.92
2018-03-03T22:56:20.551Z,37.22
2018-03-03T22:58:48.175Z,38.10
2018-03-03T23:01:15.763Z,37.08
2018-03-03T23:03:44.110Z,36.63
2018-03-03T23:06:12.488Z,37.42
2018-03-03T23:08:40.070Z,37.30
2018-03-03T23:11:09.409Z,37.35
2018-03-03T23:13:37.766Z,38.45
2018-03-03T23:16:05.376Z,37.00
2018-03-03T23:18:33.007Z,35.92
2018-03-03T23:21:00.591Z,35.78
2018-03-03T23:23:28.171Z,36.28
2018-03-03T23:25:56.554Z,35.15
2018-03-03T23:28:24.132Z,34.75
2018-03-03T23:30:51.719Z,33.67
2018-03-03T23:33:20.102Z,33.45
2018-03-03T23:35:47.694Z,33.72
2018-03-03T23:38:15.303Z,33.00
2018-03-03T23:40:42.892Z,32.75
2018-03-03T23:43:10.528Z,36.22
2018-03-03T23:45:38.115Z,34.00
2018-03-03T23:48:06.502Z,32.58
2018-03-03T23:50:34.087Z,32.25
2018-03-03T23:53:01.667Z,31.75
2018-03-03T23:55:30.048Z,29.20
2018-03-03T23:57:57.659Z,27.92
